PWSweather.com
Personal Weather Stations
Station Observations
IROGLAN40
AalgaardNO 4330

AalgaardNO 4330

Lat: 58.773, Lon: 5.846

Elevation: 326

Station Type: Davis Vanatge Pro2

www.mavahome.com

High Low Average
Temperature 59.2°F15.1°F 50.3°F10.2°F 55.2°F12.9°F
Dew Point 56.3°F13.5°F 46.8°F8.2°F 52.1°F11.2°F
Winds 6.9 mph ESE11.1 mph ESE Calm Calm 2.1 mph 3.4 mph
Wind Gusts 10.4 mph16.7 mph -- 3.5 mph5.6 mph
Humidity 91% 82% 89%
Pressure 29.91 in1012.90 in 29.67 in1004.70 in -
Precipitation 0.34 in8.60 in - -
Hour Temp Dew Point Humidity Winds Wind Gusts Pressure Precip Precip Rate Daily Precip Total
12:00 AM 52.2°F11.2°C 46.8°F8.2°C 82% Calm Calm -- 29.91 in1012.9 mb - 0.00 in0.0 mm 0.00 in0.0 mm
12:10 AM 51.9°F11.1°C 46.9°F8.3°C 83% Calm Calm -- 29.91 in1012.9 mb - 0.00 in0.0 mm 0.00 in0.0 mm
12:20 AM 51.8°F11.0°C 46.8°F8.2°C 83% Calm Calm -- 29.90 in1012.5 mb - 0.00 in0.0 mm 0.00 in0.0 mm
12:30 AM 51.8°F11.0°C 47.1°F8.4°C 84% Calm Calm -- 29.89 in1012.2 mb - 0.00 in0.0 mm 0.00 in0.0 mm
12:40 AM 51.5°F10.8°C 47.1°F8.4°C 85% Calm Calm -- 29.89 in1012.2 mb - 0.00 in0.0 mm 0.00 in0.0 mm
12:50 AM 51.2°F10.7°C 46.8°F8.2°C 85% Calm Calm -- 29.88 in1011.9 mb - 0.00 in0.0 mm 0.00 in0.0 mm
01:00 AM 51.2°F10.7°C 47.2°F8.4°C 86% Calm Calm -- 29.88 in1011.9 mb - 0.00 in0.0 mm 0.00 in0.0 mm
01:10 AM 51.1°F10.6°C 47.1°F8.4°C 86% Calm Calm -- 29.88 in1011.9 mb - 0.00 in0.0 mm 0.00 in0.0 mm
01:20 AM 50.9°F10.5°C 46.9°F8.3°C 86% Calm Calm -- 29.87 in1011.5 mb - 0.00 in0.0 mm 0.00 in0.0 mm
01:30 AM 50.8°F10.4°C 46.8°F8.2°C 86% 4.6 mph SE7.4 kmh SE 5.8 mph9.3 kmh 29.86 in1011.2 mb - 0.00 in0.0 mm 0.00 in0.0 mm
01:40 AM 50.9°F10.5°C 46.9°F8.3°C 86% 2.3 mph SE3.7 kmh SE 2.3 mph3.7 kmh 29.85 in1010.8 mb - 0.00 in0.0 mm 0.00 in0.0 mm
01:50 AM 50.9°F10.5°C 46.9°F8.3°C 86% 1.2 mph SE1.9 kmh SE 4.6 mph7.4 kmh 29.85 in1010.8 mb - 0.00 in0.0 mm 0.00 in0.0 mm
02:00 AM 50.9°F10.5°C 46.9°F8.3°C 86% 2.3 mph SSE3.7 kmh SSE 3.5 mph5.6 kmh 29.84 in1010.5 mb - 0.01 in0.3 mm 0.01 in0.3 mm
02:10 AM 51.0°F10.6°C 47.0°F8.3°C 86% 2.3 mph SE3.7 kmh SE 3.5 mph5.6 kmh 29.84 in1010.5 mb - 0.00 in0.0 mm 0.01 in0.3 mm
02:20 AM 51.0°F10.6°C 47.0°F8.3°C 86% 1.2 mph SE1.9 kmh SE 2.3 mph3.7 kmh 29.83 in1010.2 mb - 0.00 in0.0 mm 0.01 in0.3 mm
02:30 AM 51.0°F10.6°C 47.3°F8.5°C 87% Calm Calm 1.2 mph1.9 kmh 29.83 in1010.2 mb - 0.02 in0.5 mm 0.02 in0.5 mm
02:40 AM 51.0°F10.6°C 47.2°F8.4°C 87% Calm Calm -- 29.84 in1010.5 mb - 0.01 in0.3 mm 0.03 in0.8 mm
02:50 AM 50.9°F10.5°C 47.5°F8.6°C 88% 1.2 mph SE1.9 kmh SE 2.3 mph3.7 kmh 29.84 in1010.5 mb - 0.02 in0.5 mm 0.05 in1.3 mm
03:00 AM 50.7°F10.4°C 47.3°F8.5°C 88% 1.2 mph E1.9 kmh E 2.3 mph3.7 kmh 29.83 in1010.2 mb - 0.01 in0.3 mm 0.06 in1.5 mm
03:10 AM 50.5°F10.3°C 47.4°F8.6°C 89% 1.2 mph E1.9 kmh E 2.3 mph3.7 kmh 29.83 in1010.2 mb - 0.02 in0.5 mm 0.06 in1.5 mm
03:20 AM 50.5°F10.3°C 47.4°F8.6°C 89% 2.3 mph SE3.7 kmh SE 3.5 mph5.6 kmh 29.83 in1010.2 mb - 0.02 in0.5 mm 0.08 in2.0 mm
03:30 AM 50.5°F10.3°C 47.4°F8.6°C 89% 1.2 mph SE1.9 kmh SE 3.5 mph5.6 kmh 29.82 in1009.8 mb - 0.01 in0.3 mm 0.09 in2.3 mm
03:40 AM 50.5°F10.3°C 47.4°F8.6°C 89% 4.6 mph SE7.4 kmh SE 4.6 mph7.4 kmh 29.82 in1009.8 mb - 0.00 in0.0 mm 0.09 in2.3 mm
03:50 AM 50.4°F10.2°C 47.6°F8.7°C 90% 2.3 mph SE3.7 kmh SE 2.3 mph3.7 kmh 29.82 in1009.8 mb - 0.00 in0.0 mm 0.09 in2.3 mm
04:00 AM 50.5°F10.3°C 47.7°F8.7°C 90% 2.3 mph SE3.7 kmh SE 6.9 mph11.1 kmh 29.82 in1009.8 mb - 0.00 in0.0 mm 0.09 in2.3 mm
04:10 AM 50.4°F10.2°C 47.6°F8.7°C 90% 1.2 mph SSE1.9 kmh SSE 3.5 mph5.6 kmh 29.81 in1009.5 mb - 0.02 in0.5 mm 0.11 in2.8 mm
04:20 AM 50.4°F10.2°C 47.6°F8.7°C 90% 1.2 mph SE1.9 kmh SE 2.3 mph3.7 kmh 29.81 in1009.5 mb - 0.02 in0.5 mm 0.13 in3.3 mm
04:30 AM 50.5°F10.3°C 47.7°F8.7°C 90% 1.2 mph SSE1.9 kmh SSE 2.3 mph3.7 kmh 29.80 in1009.1 mb - 0.02 in0.5 mm 0.14 in3.6 mm
04:40 AM 50.4°F10.2°C 47.6°F8.7°C 90% 2.3 mph SE3.7 kmh SE 3.5 mph5.6 kmh 29.80 in1009.1 mb - 0.01 in0.3 mm 0.15 in3.8 mm
04:50 AM 50.3°F10.2°C 47.5°F8.6°C 90% 2.3 mph SE3.7 kmh SE 3.5 mph5.6 kmh 29.80 in1009.1 mb - 0.00 in0.0 mm 0.15 in3.8 mm
05:00 AM 50.3°F10.2°C 47.5°F8.6°C 90% 3.5 mph SE5.6 kmh SE 3.5 mph5.6 kmh 29.79 in1008.8 mb - 0.02 in0.5 mm 0.17 in4.3 mm
05:10 AM 50.4°F10.2°C 47.6°F8.7°C 90% 3.5 mph SE5.6 kmh SE 5.8 mph9.3 kmh 29.79 in1008.8 mb - 0.00 in0.0 mm 0.17 in4.3 mm
05:20 AM 50.4°F10.2°C 47.9°F8.8°C 91% 3.5 mph SE5.6 kmh SE 4.6 mph7.4 kmh 29.78 in1008.5 mb - 0.02 in0.5 mm 0.18 in4.6 mm
05:30 AM 50.5°F10.3°C 48.0°F8.9°C 91% 4.6 mph SE7.4 kmh SE 6.9 mph11.1 kmh 29.78 in1008.5 mb - 0.01 in0.3 mm 0.19 in4.8 mm
05:40 AM 50.6°F10.3°C 48.1°F8.9°C 91% 2.3 mph SE3.7 kmh SE 5.8 mph9.3 kmh 29.78 in1008.5 mb - 0.01 in0.3 mm 0.19 in4.8 mm
05:50 AM 50.8°F10.4°C 48.0°F8.9°C 90% 2.3 mph ESE3.7 kmh ESE 3.5 mph5.6 kmh 29.78 in1008.5 mb - 0.00 in0.0 mm 0.19 in4.8 mm
06:00 AM 50.9°F10.5°C 48.1°F8.9°C 90% 4.6 mph SE7.4 kmh SE 8.1 mph13.0 kmh 29.77 in1008.1 mb - 0.01 in0.3 mm 0.20 in5.1 mm
06:10 AM 50.9°F10.5°C 48.1°F8.9°C 90% 4.6 mph SE7.4 kmh SE 8.1 mph13.0 kmh 29.78 in1008.5 mb - 0.01 in0.3 mm 0.20 in5.1 mm
06:20 AM 51.0°F10.6°C 48.5°F9.2°C 91% 4.6 mph SE7.4 kmh SE 8.1 mph13.0 kmh 29.78 in1008.5 mb - 0.00 in0.0 mm 0.20 in5.1 mm
06:30 AM 51.2°F10.7°C 48.7°F9.3°C 91% 4.6 mph SE7.4 kmh SE 6.9 mph11.1 kmh 29.77 in1008.1 mb - 0.00 in0.0 mm 0.20 in5.1 mm
06:40 AM 51.3°F10.7°C 48.8°F9.3°C 91% 3.5 mph SE5.6 kmh SE 6.9 mph11.1 kmh 29.77 in1008.1 mb - 0.00 in0.0 mm 0.20 in5.1 mm
06:50 AM 51.5°F10.8°C 49.0°F9.4°C 91% 4.6 mph SE7.4 kmh SE 6.9 mph11.1 kmh 29.77 in1008.1 mb - 0.00 in0.0 mm 0.20 in5.1 mm
07:00 AM 51.8°F11.0°C 49.3°F9.6°C 91% 4.6 mph SE7.4 kmh SE 6.9 mph11.1 kmh 29.77 in1008.1 mb - 0.00 in0.0 mm 0.20 in5.1 mm
07:10 AM 51.9°F11.1°C 49.4°F9.7°C 91% 3.5 mph SE5.6 kmh SE 9.2 mph14.8 kmh 29.76 in1007.8 mb - 0.00 in0.0 mm 0.20 in5.1 mm
07:20 AM 52.1°F11.2°C 49.6°F9.8°C 91% 4.6 mph SE7.4 kmh SE 6.9 mph11.1 kmh 29.76 in1007.8 mb - 0.00 in0.0 mm 0.20 in5.1 mm
07:30 AM 52.2°F11.2°C 49.4°F9.7°C 90% 5.8 mph SE9.3 kmh SE 8.1 mph13.0 kmh 29.76 in1007.8 mb - 0.00 in0.0 mm 0.20 in5.1 mm
07:40 AM 52.4°F11.3°C 49.9°F9.9°C 91% 3.5 mph SE5.6 kmh SE 5.8 mph9.3 kmh 29.76 in1007.8 mb - 0.00 in0.0 mm 0.20 in5.1 mm
07:50 AM 52.7°F11.5°C 49.8°F9.9°C 90% 4.6 mph SE7.4 kmh SE 8.1 mph13.0 kmh 29.76 in1007.8 mb - 0.00 in0.0 mm 0.20 in5.1 mm
08:00 AM 53.0°F11.7°C 50.1°F10.1°C 90% 4.6 mph SE7.4 kmh SE 5.8 mph9.3 kmh 29.76 in1007.8 mb - 0.00 in0.0 mm 0.20 in5.1 mm
08:10 AM 53.0°F11.7°C 50.1°F10.1°C 90% 3.5 mph SE5.6 kmh SE 5.8 mph9.3 kmh 29.76 in1007.8 mb - 0.00 in0.0 mm 0.20 in5.1 mm
08:20 AM 53.2°F11.8°C 50.3°F10.2°C 90% 1.2 mph ESE1.9 kmh ESE 2.3 mph3.7 kmh 29.75 in1007.5 mb - 0.00 in0.0 mm 0.20 in5.1 mm
08:30 AM 53.3°F11.8°C 50.4°F10.2°C 90% 3.5 mph SE5.6 kmh SE 8.1 mph13.0 kmh 29.76 in1007.8 mb - 0.00 in0.0 mm 0.20 in5.1 mm
08:40 AM 53.5°F11.9°C 50.6°F10.3°C 90% 5.8 mph SE9.3 kmh SE 6.9 mph11.1 kmh 29.75 in1007.5 mb - 0.00 in0.0 mm 0.20 in5.1 mm
08:50 AM 53.9°F12.2°C 51.0°F10.6°C 90% 3.5 mph ESE5.6 kmh ESE 5.8 mph9.3 kmh 29.75 in1007.5 mb - 0.00 in0.0 mm 0.20 in5.1 mm
09:00 AM 54.1°F12.3°C 51.2°F10.7°C 90% 6.9 mph ESE11.1 kmh ESE 9.2 mph14.8 kmh 29.75 in1007.5 mb - 0.00 in0.0 mm 0.20 in5.1 mm
09:10 AM 54.2°F12.3°C 51.3°F10.7°C 90% 5.8 mph SE9.3 kmh SE 8.1 mph13.0 kmh 29.75 in1007.5 mb - 0.00 in0.0 mm 0.20 in5.1 mm
09:20 AM 54.6°F12.6°C 51.7°F10.9°C 90% 4.6 mph E7.4 kmh E 6.9 mph11.1 kmh 29.74 in1007.1 mb - 0.00 in0.0 mm 0.20 in5.1 mm
09:30 AM 54.9°F12.7°C 52.0°F11.1°C 90% 3.5 mph SE5.6 kmh SE 4.6 mph7.4 kmh 29.74 in1007.1 mb - 0.00 in0.0 mm 0.20 in5.1 mm
09:40 AM 55.2°F12.9°C 52.3°F11.3°C 90% 3.5 mph SSE5.6 kmh SSE 4.6 mph7.4 kmh 29.74 in1007.1 mb - 0.00 in0.0 mm 0.20 in5.1 mm
09:50 AM 55.5°F13.1°C 52.6°F11.4°C 90% 2.3 mph SSE3.7 kmh SSE 3.5 mph5.6 kmh 29.74 in1007.1 mb - 0.00 in0.0 mm 0.20 in5.1 mm
10:00 AM 55.9°F13.3°C 53.0°F11.7°C 90% 2.3 mph SE3.7 kmh SE 6.9 mph11.1 kmh 29.74 in1007.1 mb - 0.00 in0.0 mm 0.20 in5.1 mm
10:10 AM 56.0°F13.3°C 53.1°F11.7°C 90% 3.5 mph SE5.6 kmh SE 4.6 mph7.4 kmh 29.74 in1007.1 mb - 0.00 in0.0 mm 0.20 in5.1 mm
10:20 AM 56.3°F13.5°C 53.4°F11.9°C 90% 2.3 mph SE3.7 kmh SE 3.5 mph5.6 kmh 29.74 in1007.1 mb - 0.00 in0.0 mm 0.20 in5.1 mm
10:30 AM 56.7°F13.7°C 53.8°F12.1°C 90% 2.3 mph SE3.7 kmh SE 5.8 mph9.3 kmh 29.74 in1007.1 mb - 0.00 in0.0 mm 0.20 in5.1 mm
10:40 AM 57.5°F14.2°C 54.3°F12.4°C 89% 3.5 mph SE5.6 kmh SE 3.5 mph5.6 kmh 29.73 in1006.8 mb - 0.00 in0.0 mm 0.20 in5.1 mm
10:50 AM 58.2°F14.6°C 55.0°F12.8°C 89% 3.5 mph SE5.6 kmh SE 5.8 mph9.3 kmh 29.73 in1006.8 mb - 0.00 in0.0 mm 0.20 in5.1 mm
11:00 AM 58.1°F14.5°C 54.5°F12.5°C 88% 3.5 mph SE5.6 kmh SE 5.8 mph9.3 kmh 29.73 in1006.8 mb - 0.00 in0.0 mm 0.20 in5.1 mm
11:10 AM 58.4°F14.7°C 54.9°F12.7°C 88% 2.3 mph S3.7 kmh S 4.6 mph7.4 kmh 29.73 in1006.8 mb - 0.00 in0.0 mm 0.20 in5.1 mm
11:20 AM 58.2°F14.6°C 54.7°F12.6°C 88% 4.6 mph SSE7.4 kmh SSE 4.6 mph7.4 kmh 29.73 in1006.8 mb - 0.00 in0.0 mm 0.20 in5.1 mm
11:30 AM 58.5°F14.7°C 55.0°F12.8°C 88% 4.6 mph SE7.4 kmh SE 6.9 mph11.1 kmh 29.72 in1006.4 mb - 0.00 in0.0 mm 0.20 in5.1 mm
11:40 AM 58.9°F14.9°C 55.3°F12.9°C 88% 3.5 mph SE5.6 kmh SE 6.9 mph11.1 kmh 29.72 in1006.4 mb - 0.00 in0.0 mm 0.20 in5.1 mm
11:50 AM 58.7°F14.8°C 54.8°F12.7°C 87% 4.6 mph ESE7.4 kmh ESE 10.4 mph16.7 kmh 29.72 in1006.4 mb - 0.00 in0.0 mm 0.20 in5.1 mm
12:00 PM 58.8°F14.9°C 55.3°F12.9°C 88% 2.3 mph SSE3.7 kmh SSE 3.5 mph5.6 kmh 29.73 in1006.8 mb - 0.00 in0.0 mm 0.20 in5.1 mm
12:10 PM 58.7°F14.8°C 55.2°F12.9°C 88% 3.5 mph ESE5.6 kmh ESE 4.6 mph7.4 kmh 29.72 in1006.4 mb - 0.00 in0.0 mm 0.20 in5.1 mm
12:20 PM 58.7°F14.8°C 54.8°F12.7°C 87% 2.3 mph E3.7 kmh E 3.5 mph5.6 kmh 29.72 in1006.4 mb - 0.00 in0.0 mm 0.20 in5.1 mm
12:30 PM 58.7°F14.8°C 55.2°F12.9°C 88% 1.2 mph SE1.9 kmh SE 2.3 mph3.7 kmh 29.73 in1006.8 mb - 0.00 in0.0 mm 0.20 in5.1 mm
12:40 PM 58.7°F14.8°C 55.2°F12.9°C 88% 3.5 mph SE5.6 kmh SE 3.5 mph5.6 kmh 29.72 in1006.4 mb - 0.00 in0.0 mm 0.20 in5.1 mm
12:50 PM 58.8°F14.9°C 55.3°F12.9°C 88% 2.3 mph SSE3.7 kmh SSE 3.5 mph5.6 kmh 29.72 in1006.4 mb - 0.00 in0.0 mm 0.20 in5.1 mm
01:00 PM 59.0°F15.0°C 55.4°F13.0°C 88% 2.3 mph SSE3.7 kmh SSE 4.6 mph7.4 kmh 29.72 in1006.4 mb - 0.00 in0.0 mm 0.20 in5.1 mm
01:10 PM 59.0°F15.0°C 55.4°F13.0°C 88% 1.2 mph SSE1.9 kmh SSE 3.5 mph5.6 kmh 29.72 in1006.4 mb - 0.00 in0.0 mm 0.20 in5.1 mm
01:20 PM 59.0°F15.0°C 55.4°F13.0°C 88% 4.6 mph S7.4 kmh S 5.8 mph9.3 kmh 29.72 in1006.4 mb - 0.00 in0.0 mm 0.20 in5.1 mm
01:30 PM 59.0°F15.0°C 55.4°F13.0°C 88% 3.5 mph S5.6 kmh S 3.5 mph5.6 kmh 29.72 in1006.4 mb - 0.03 in0.8 mm 0.23 in5.8 mm
01:40 PM 58.9°F14.9°C 55.4°F13.0°C 88% 2.3 mph SSE3.7 kmh SSE 3.5 mph5.6 kmh 29.72 in1006.4 mb - 0.02 in0.5 mm 0.24 in6.1 mm
01:50 PM 58.7°F14.8°C 55.5°F13.1°C 89% Calm Calm 2.3 mph3.7 kmh 29.73 in1006.8 mb - 0.01 in0.3 mm 0.24 in6.1 mm
02:00 PM 58.7°F14.8°C 55.5°F13.1°C 89% Calm Calm -- 29.73 in1006.8 mb - 0.00 in0.0 mm 0.24 in6.1 mm
02:10 PM 58.5°F14.7°C 55.3°F12.9°C 89% Calm Calm -- 29.73 in1006.8 mb - 0.00 in0.0 mm 0.24 in6.1 mm
02:20 PM 58.5°F14.7°C 55.3°F12.9°C 89% Calm Calm -- 29.72 in1006.4 mb - 0.01 in0.3 mm 0.25 in6.4 mm
02:30 PM 58.6°F14.8°C 55.7°F13.2°C 90% 2.3 mph SE3.7 kmh SE 3.5 mph5.6 kmh 29.71 in1006.1 mb - 0.00 in0.0 mm 0.25 in6.4 mm
02:40 PM 58.5°F14.7°C 55.6°F13.1°C 90% 3.5 mph SSE5.6 kmh SSE 4.6 mph7.4 kmh 29.71 in1006.1 mb - 0.00 in0.0 mm 0.25 in6.4 mm
02:50 PM 58.5°F14.7°C 55.6°F13.1°C 90% 3.5 mph SSE5.6 kmh SSE 4.6 mph7.4 kmh 29.71 in1006.1 mb - 0.00 in0.0 mm 0.25 in6.4 mm
03:00 PM 58.7°F14.8°C 55.8°F13.2°C 90% 3.5 mph SSE5.6 kmh SSE 3.5 mph5.6 kmh 29.71 in1006.1 mb - 0.00 in0.0 mm 0.25 in6.4 mm
03:10 PM 58.7°F14.8°C 55.8°F13.2°C 90% 2.3 mph ESE3.7 kmh ESE 4.6 mph7.4 kmh 29.71 in1006.1 mb - 0.00 in0.0 mm 0.25 in6.4 mm
03:20 PM 58.9°F14.9°C 56.0°F13.3°C 90% 1.2 mph SSE1.9 kmh SSE 3.5 mph5.6 kmh 29.71 in1006.1 mb - 0.00 in0.0 mm 0.25 in6.4 mm
03:30 PM 59.0°F15.0°C 56.1°F13.4°C 90% Calm Calm 2.3 mph3.7 kmh 29.71 in1006.1 mb - 0.00 in0.0 mm 0.25 in6.4 mm
03:40 PM 59.1°F15.1°C 56.2°F13.4°C 90% Calm Calm 3.5 mph5.6 kmh 29.71 in1006.1 mb - 0.00 in0.0 mm 0.25 in6.4 mm
03:50 PM 59.1°F15.1°C 56.2°F13.4°C 90% Calm Calm -- 29.71 in1006.1 mb - 0.00 in0.0 mm 0.25 in6.4 mm
04:00 PM 59.1°F15.1°C 56.2°F13.4°C 90% 1.2 mph E1.9 kmh E 2.3 mph3.7 kmh 29.70 in1005.8 mb - 0.00 in0.0 mm 0.25 in6.4 mm
04:10 PM 59.2°F15.1°C 56.3°F13.5°C 90% Calm Calm -- 29.71 in1006.1 mb - 0.00 in0.0 mm 0.25 in6.4 mm
04:20 PM 58.9°F14.9°C 56.0°F13.3°C 90% Calm Calm 4.6 mph7.4 kmh 29.70 in1005.8 mb - 0.00 in0.0 mm 0.25 in6.4 mm
04:30 PM 58.7°F14.8°C 55.8°F13.2°C 90% 1.2 mph NW1.9 kmh NW 3.5 mph5.6 kmh 29.70 in1005.8 mb - 0.00 in0.0 mm 0.25 in6.4 mm
04:40 PM 58.8°F14.9°C 55.9°F13.3°C 90% Calm Calm -- 29.70 in1005.8 mb - 0.00 in0.0 mm 0.25 in6.4 mm
04:50 PM 58.8°F14.9°C 55.9°F13.3°C 90% Calm Calm -- 29.70 in1005.8 mb - 0.00 in0.0 mm 0.25 in6.4 mm
05:00 PM 58.6°F14.8°C 55.7°F13.2°C 90% 2.3 mph S3.7 kmh S 2.3 mph3.7 kmh 29.70 in1005.8 mb - 0.00 in0.0 mm 0.25 in6.4 mm
05:10 PM 58.7°F14.8°C 55.7°F13.2°C 90% 1.2 mph SSE1.9 kmh SSE 2.3 mph3.7 kmh 29.69 in1005.4 mb - 0.00 in0.0 mm 0.25 in6.4 mm
05:20 PM 58.7°F14.8°C 55.8°F13.2°C 90% Calm Calm -- 29.70 in1005.8 mb - 0.00 in0.0 mm 0.25 in6.4 mm
05:30 PM 58.7°F14.8°C 55.8°F13.2°C 90% Calm Calm -- 29.70 in1005.8 mb - 0.00 in0.0 mm 0.25 in6.4 mm
05:40 PM 58.8°F14.9°C 55.9°F13.3°C 90% Calm Calm -- 29.70 in1005.8 mb - 0.00 in0.0 mm 0.25 in6.4 mm
05:50 PM 59.0°F15.0°C 56.1°F13.4°C 90% Calm Calm 1.2 mph1.9 kmh 29.70 in1005.8 mb - 0.00 in0.0 mm 0.25 in6.4 mm
06:00 PM 58.9°F14.9°C 56.0°F13.3°C 90% 2.3 mph WSW3.7 kmh WSW 3.5 mph5.6 kmh 29.70 in1005.8 mb - 0.00 in0.0 mm 0.25 in6.4 mm
06:10 PM 58.7°F14.8°C 55.8°F13.2°C 90% 2.3 mph WSW3.7 kmh WSW 3.5 mph5.6 kmh 29.69 in1005.4 mb - 0.00 in0.0 mm 0.25 in6.4 mm
06:20 PM 58.4°F14.7°C 55.5°F13.1°C 90% 2.3 mph WSW3.7 kmh WSW 3.5 mph5.6 kmh 29.69 in1005.4 mb - 0.00 in0.0 mm 0.25 in6.4 mm
06:30 PM 58.1°F14.5°C 55.2°F12.9°C 90% 1.2 mph WSW1.9 kmh WSW 2.3 mph3.7 kmh 29.69 in1005.4 mb - 0.00 in0.0 mm 0.25 in6.4 mm
06:40 PM 57.9°F14.4°C 55.0°F12.8°C 90% 2.3 mph WSW3.7 kmh WSW 3.5 mph5.6 kmh 29.69 in1005.4 mb - 0.00 in0.0 mm 0.25 in6.4 mm
06:50 PM 57.8°F14.3°C 54.9°F12.7°C 90% 1.2 mph WSW1.9 kmh WSW 3.5 mph5.6 kmh 29.69 in1005.4 mb - 0.00 in0.0 mm 0.25 in6.4 mm
07:00 PM 57.6°F14.2°C 54.7°F12.6°C 90% 2.3 mph WSW3.7 kmh WSW 3.5 mph5.6 kmh 29.69 in1005.4 mb - 0.00 in0.0 mm 0.25 in6.4 mm
07:10 PM 57.5°F14.2°C 54.6°F12.6°C 90% 2.3 mph WSW3.7 kmh WSW 3.5 mph5.6 kmh 29.68 in1005.1 mb - 0.00 in0.0 mm 0.25 in6.4 mm
07:20 PM 57.4°F14.1°C 54.5°F12.5°C 90% 1.2 mph WSW1.9 kmh WSW 3.5 mph5.6 kmh 29.68 in1005.1 mb - 0.00 in0.0 mm 0.25 in6.4 mm
07:30 PM 57.2°F14.0°C 54.3°F12.4°C 90% 2.3 mph WSW3.7 kmh WSW 3.5 mph5.6 kmh 29.68 in1005.1 mb - 0.00 in0.0 mm 0.25 in6.4 mm
07:40 PM 57.1°F13.9°C 54.2°F12.3°C 90% 1.2 mph SW1.9 kmh SW 3.5 mph5.6 kmh 29.68 in1005.1 mb - 0.00 in0.0 mm 0.25 in6.4 mm
07:50 PM 57.0°F13.9°C 54.1°F12.3°C 90% 1.2 mph WSW1.9 kmh WSW 2.3 mph3.7 kmh 29.68 in1005.1 mb - 0.00 in0.0 mm 0.25 in6.4 mm
08:00 PM 56.9°F13.8°C 54.0°F12.2°C 90% 1.2 mph WSW1.9 kmh WSW 2.3 mph3.7 kmh 29.68 in1005.1 mb - 0.00 in0.0 mm 0.25 in6.4 mm
08:10 PM 56.9°F13.8°C 54.0°F12.2°C 90% 1.2 mph WSW1.9 kmh WSW 3.5 mph5.6 kmh 29.68 in1005.1 mb - 0.00 in0.0 mm 0.25 in6.4 mm
08:20 PM 56.8°F13.8°C 53.9°F12.2°C 90% Calm Calm 1.2 mph1.9 kmh 29.68 in1005.1 mb - 0.00 in0.0 mm 0.25 in6.4 mm
08:30 PM 56.8°F13.8°C 53.9°F12.2°C 90% 1.2 mph SW1.9 kmh SW 2.3 mph3.7 kmh 29.68 in1005.1 mb - 0.00 in0.0 mm 0.25 in6.4 mm
08:40 PM 56.8°F13.8°C 53.9°F12.2°C 90% 1.2 mph SW1.9 kmh SW 2.3 mph3.7 kmh 29.68 in1005.1 mb - 0.00 in0.0 mm 0.25 in6.4 mm
08:50 PM 56.7°F13.7°C 53.8°F12.1°C 90% 2.3 mph WSW3.7 kmh WSW 3.5 mph5.6 kmh 29.68 in1005.1 mb - 0.00 in0.0 mm 0.25 in6.4 mm
09:00 PM 56.5°F13.6°C 53.9°F12.2°C 91% 2.3 mph WSW3.7 kmh WSW 3.5 mph5.6 kmh 29.68 in1005.1 mb - 0.00 in0.0 mm 0.25 in6.4 mm
09:10 PM 56.4°F13.6°C 53.5°F11.9°C 90% 2.3 mph WSW3.7 kmh WSW 3.5 mph5.6 kmh 29.68 in1005.1 mb - 0.00 in0.0 mm 0.25 in6.4 mm
09:20 PM 56.2°F13.4°C 53.3°F11.8°C 90% 1.2 mph WSW1.9 kmh WSW 2.3 mph3.7 kmh 29.68 in1005.1 mb - 0.00 in0.0 mm 0.25 in6.4 mm
09:30 PM 56.1°F13.4°C 53.2°F11.8°C 90% 2.3 mph WSW3.7 kmh WSW 3.5 mph5.6 kmh 29.68 in1005.1 mb - 0.00 in0.0 mm 0.25 in6.4 mm
09:40 PM 56.1°F13.4°C 53.5°F11.9°C 91% 1.2 mph SW1.9 kmh SW 2.3 mph3.7 kmh 29.68 in1005.1 mb - 0.00 in0.0 mm 0.25 in6.4 mm
09:50 PM 56.0°F13.3°C 53.4°F11.9°C 91% 1.2 mph SW1.9 kmh SW 2.3 mph3.7 kmh 29.68 in1005.1 mb - 0.00 in0.0 mm 0.25 in6.4 mm
10:00 PM 56.0°F13.3°C 53.4°F11.9°C 91% Calm Calm 1.2 mph1.9 kmh 29.68 in1005.1 mb - 0.00 in0.0 mm 0.25 in6.4 mm
10:10 PM 56.0°F13.3°C 53.4°F11.9°C 91% 1.2 mph SW1.9 kmh SW 2.3 mph3.7 kmh 29.68 in1005.1 mb - 0.00 in0.0 mm 0.25 in6.4 mm
10:20 PM 56.0°F13.3°C 53.4°F11.9°C 91% Calm Calm 1.2 mph1.9 kmh 29.68 in1005.1 mb - 0.00 in0.0 mm 0.25 in6.4 mm
10:30 PM 56.0°F13.3°C 53.4°F11.9°C 91% Calm Calm -- 29.68 in1005.1 mb - 0.00 in0.0 mm 0.25 in6.4 mm
10:40 PM 55.9°F13.3°C 53.3°F11.8°C 91% Calm Calm 2.3 mph3.7 kmh 29.68 in1005.1 mb - 0.00 in0.0 mm 0.25 in6.4 mm
10:50 PM 55.9°F13.3°C 53.3°F11.8°C 91% 1.2 mph WSW1.9 kmh WSW 1.2 mph1.9 kmh 29.68 in1005.1 mb - 0.00 in0.0 mm 0.25 in6.4 mm
11:00 PM 55.8°F13.2°C 53.3°F11.8°C 91% 1.2 mph WSW1.9 kmh WSW 2.3 mph3.7 kmh 29.68 in1005.1 mb - 0.00 in0.0 mm 0.34 in8.6 mm
11:10 PM 55.8°F13.2°C 53.2°F11.8°C 91% Calm Calm -- 29.68 in1005.1 mb - 0.00 in0.0 mm 0.34 in8.6 mm
11:20 PM 55.8°F13.2°C 53.2°F11.8°C 91% Calm Calm -- 29.68 in1005.1 mb - 0.00 in0.0 mm 0.34 in8.6 mm
11:30 PM 55.8°F13.2°C 53.2°F11.8°C 91% 1.2 mph WSW1.9 kmh WSW 2.3 mph3.7 kmh 29.67 in1004.7 mb - 0.00 in0.0 mm 0.34 in8.6 mm
11:40 PM 55.8°F13.2°C 53.2°F11.8°C 91% Calm Calm 1.2 mph1.9 kmh 29.67 in1004.7 mb - 0.00 in0.0 mm 0.34 in8.6 mm
11:50 PM 55.8°F13.2°C 53.2°F11.8°C 91% Calm Calm -- 29.67 in1004.7 mb - 0.00 in0.0 mm 0.34 in8.6 mm